Time;durP1;ratioP1;P1;durP2;ratioP2;P2;SDS_P1;SDS_P2;PMS_P1;PMS_P2;Temp;Humidity;BMP_temperature;BMP_pressure;BME280_temperature;BME280_humidity;BME280_pressure;Samples;Min_cycle;Max_cycle;Signal;HPM_P1;HPM_P2
2024/02/19 00:02:10;;;;;;;2.65;2.45;;;;;;;;;;5034446;28;20820;-81
2024/02/19 00:04:36;;;;;;;2.35;2.15;;;;;;;;;;5034577;28;20407;-81
2024/02/19 00:07:02;;;;;;;2.95;2.65;;;;;;;;;;5035501;28;20417;-81
2024/02/19 00:09:28;;;;;;;2.63;2.42;;;;;;;;;;5035225;28;20391;-81
2024/02/19 00:11:54;;;;;;;3.05;2.85;;;;;;;;;;5035434;28;20391;-82
2024/02/19 00:14:20;;;;;;;3.17;2.88;;;;;;;;;;5034804;28;20398;-81
2024/02/19 00:16:47;;;;;;;3.80;3.50;;;;;;;;;;5035126;28;20395;-80
2024/02/19 00:19:13;;;;;;;3.88;3.58;;;;;;;;;;5035200;28;20383;-81
2024/02/19 00:21:39;;;;;;;4.72;4.38;;;;;;;;;;5034435;28;20414;-80
2024/02/19 00:24:05;;;;;;;6.20;4.93;;;;;;;;;;5034136;28;20407;-80
2024/02/19 00:26:31;;;;;;;4.68;4.38;;;;;;;;;;5034708;28;20379;-80
2024/02/19 00:28:57;;;;;;;5.30;4.90;;;;;;;;;;5034081;28;20450;-80
2024/02/19 00:31:23;;;;;;;5.20;4.80;;;;;;;;;;5033998;28;20808;-81
2024/02/19 00:33:49;;;;;;;5.30;4.80;;;;;;;;;;5034468;28;20401;-80
2024/02/19 00:36:15;;;;;;;5.43;5.03;;;;;;;;;;5033551;28;20379;-80
2024/02/19 00:38:41;;;;;;;5.47;5.07;;;;;;;;;;5034055;28;20441;-81
2024/02/19 00:41:07;;;;;;;4.60;4.30;;;;;;;;;;5034206;28;20737;-81
2024/02/19 00:43:33;;;;;;;4.95;4.65;;;;;;;;;;5033946;28;20410;-80
2024/02/19 00:45:59;;;;;;;4.88;4.47;;;;;;;;;;5034129;28;20391;-80
2024/02/19 00:48:25;;;;;;;4.97;4.57;;;;;;;;;;5034101;28;20903;-80
2024/02/19 00:50:51;;;;;;;4.80;4.40;;;;;;;;;;5034256;28;20462;-80
2024/02/19 00:53:17;;;;;;;5.60;5.20;;;;;;;;;;5034129;28;20391;-80
2024/02/19 00:55:43;;;;;;;5.57;5.18;;;;;;;;;;5033848;28;20376;-80
2024/02/19 00:58:09;;;;;;;5.18;4.78;;;;;;;;;;5033628;28;20386;-80
2024/02/19 01:00:35;;;;;;;5.43;5.00;;;;;;;;;;5033755;28;20737;-80
2024/02/19 01:03:01;;;;;;;5.40;5.00;;;;;;;;;;5033425;28;20422;-83
2024/02/19 01:05:27;;;;;;;4.95;4.65;;;;;;;;;;5033638;28;20460;-80
2024/02/19 01:07:53;;;;;;;5.18;4.78;;;;;;;;;;5033725;28;20449;-80
2024/02/19 01:10:19;;;;;;;4.65;4.25;;;;;;;;;;5034240;28;20470;-80
2024/02/19 01:12:45;;;;;;;4.97;4.68;;;;;;;;;;5034390;28;20444;-81
2024/02/19 01:15:11;;;;;;;4.50;4.10;;;;;;;;;;5034064;28;20721;-81
2024/02/19 01:17:37;;;;;;;4.00;3.70;;;;;;;;;;5033928;28;20470;-81
2024/02/19 01:20:05;;;;;;;4.20;3.80;;;;;;;;;;5033475;28;20390;-80
2024/02/19 01:22:31;;;;;;;3.57;3.30;;;;;;;;;;5033647;28;20481;-80
2024/02/19 01:24:57;;;;;;;3.63;3.22;;;;;;;;;;5034329;28;20386;-83
2024/02/19 01:27:23;;;;;;;3.50;3.20;;;;;;;;;;5033479;28;20383;-80
2024/02/19 01:29:50;;;;;;;3.60;3.33;;;;;;;;;;5031315;28;20429;-80
2024/02/19 01:32:16;;;;;;;3.20;3.00;;;;;;;;;;5038324;28;20382;-80
2024/02/19 01:34:43;;;;;;;2.92;2.72;;;;;;;;;;5037932;28;20379;-81
2024/02/19 01:37:09;;;;;;;2.80;2.60;;;;;;;;;;5038093;28;20725;-81
2024/02/19 01:39:35;;;;;;;2.63;2.42;;;;;;;;;;5037781;28;20387;-82
2024/02/19 01:42:01;;;;;;;3.03;2.70;;;;;;;;;;5037848;28;20799;-82
2024/02/19 01:44:27;;;;;;;2.50;2.30;;;;;;;;;;5037590;28;20402;-82
2024/02/19 01:46:53;;;;;;;2.53;2.33;;;;;;;;;;5019651;28;20448;-82
2024/02/19 01:49:19;;;;;;;2.90;2.70;;;;;;;;;;5037375;28;20437;-81
2024/02/19 01:51:46;;;;;;;3.17;2.90;;;;;;;;;;5037953;28;20423;-81
2024/02/19 01:54:14;;;;;;;3.03;2.83;;;;;;;;;;5037734;28;20382;-82
2024/02/19 01:56:41;;;;;;;3.00;2.80;;;;;;;;;;5037913;28;20391;-82
2024/02/19 01:59:07;;;;;;;2.70;2.50;;;;;;;;;;5037935;28;20375;-81
2024/02/19 02:01:34;;;;;;;2.70;2.50;;;;;;;;;;5036131;28;20387;-82
2024/02/19 02:04:01;;;;;;;2.25;2.10;;;;;;;;;;5036690;28;20403;-82
2024/02/19 02:06:27;;;;;;;2.58;2.38;;;;;;;;;;5020391;28;20417;-82
2024/02/19 02:08:53;;;;;;;2.10;2.00;;;;;;;;;;5038089;28;20386;-82
2024/02/19 02:11:19;;;;;;;2.55;2.30;;;;;;;;;;5039140;28;20402;-82
2024/02/19 02:13:45;;;;;;;2.50;2.30;;;;;;;;;;5038587;28;20391;-82
2024/02/19 02:16:11;;;;;;;2.42;2.13;;;;;;;;;;5038899;28;20409;-82
2024/02/19 02:18:37;;;;;;;2.50;2.30;;;;;;;;;;5020453;28;20524;-82
2024/02/19 02:21:03;;;;;;;2.40;2.20;;;;;;;;;;5037871;28;20900;-82
2024/02/19 02:23:30;;;;;;;2.30;2.13;;;;;;;;;;5038253;28;20415;-82
2024/02/19 02:25:56;;;;;;;2.33;2.20;;;;;;;;;;5037850;28;20428;-81
2024/02/19 02:28:22;;;;;;;2.45;2.30;;;;;;;;;;5037547;28;20379;-82
2024/02/19 02:30:49;;;;;;;2.47;1.90;;;;;;;;;;5037684;28;20546;-82
2024/02/19 02:33:15;;;;;;;2.25;2.03;;;;;;;;;;5037548;28;20744;-82
2024/02/19 02:35:41;;;;;;;1.95;1.85;;;;;;;;;;5037152;28;20386;-82
2024/02/19 02:38:07;;;;;;;2.13;1.95;;;;;;;;;;5037191;28;20389;-79
2024/02/19 02:40:33;;;;;;;1.77;1.67;;;;;;;;;;5037849;28;20712;-82
2024/02/19 02:42:59;;;;;;;2.28;1.70;;;;;;;;;;5037260;28;20423;-82
2024/02/19 02:45:25;;;;;;;2.35;2.10;;;;;;;;;;5037051;28;20443;-82
2024/02/19 02:47:51;;;;;;;2.07;1.87;;;;;;;;;;5036550;28;20463;-82
2024/02/19 02:50:17;;;;;;;1.90;1.80;;;;;;;;;;5036374;28;20379;-81
2024/02/19 02:52:43;;;;;;;2.13;2.03;;;;;;;;;;5037154;28;20838;-81
2024/02/19 02:55:09;;;;;;;2.10;2.00;;;;;;;;;;5037263;28;20583;-81
2024/02/19 02:57:35;;;;;;;2.55;2.20;;;;;;;;;;5036766;28;20395;-81
2024/02/19 03:00:01;;;;;;;2.40;2.20;;;;;;;;;;5036720;28;20482;-81
2024/02/19 03:02:27;;;;;;;2.27;2.10;;;;;;;;;;5036609;28;20462;-81
2024/02/19 03:04:53;;;;;;;2.45;2.25;;;;;;;;;;5036655;28;20418;-81
2024/02/19 03:07:19;;;;;;;2.60;1.90;;;;;;;;;;5037020;28;20383;-81
2024/02/19 03:09:45;;;;;;;2.25;2.05;;;;;;;;;;5036782;28;20390;-81
2024/02/19 03:12:13;;;;;;;2.72;2.42;;;;;;;;;;5036678;28;20439;-81
2024/02/19 03:14:39;;;;;;;2.30;2.10;;;;;;;;;;5036594;28;20387;-81
2024/02/19 03:17:07;;;;;;;3.05;1.90;;;;;;;;;;5036970;28;20379;-81
2024/02/19 03:19:33;;;;;;;3.80;2.25;;;;;;;;;;5036542;28;20725;-81
2024/02/19 03:21:59;;;;;;;2.20;2.00;;;;;;;;;;5036522;28;20383;-81
2024/02/19 03:24:25;;;;;;;2.60;2.40;;;;;;;;;;5036188;28;20484;-81
2024/02/19 03:26:52;;;;;;;2.30;2.10;;;;;;;;;;5036160;28;20376;-81
2024/02/19 03:29:18;;;;;;;2.53;2.33;;;;;;;;;;5035319;28;20386;-81
2024/02/19 03:31:44;;;;;;;2.05;1.95;;;;;;;;;;5036062;28;20387;-81
2024/02/19 03:34:10;;;;;;;2.17;2.00;;;;;;;;;;5036351;28;20387;-82
2024/02/19 03:36:36;;;;;;;1.87;1.77;;;;;;;;;;5037662;28;20383;-81
2024/02/19 03:39:03;;;;;;;2.08;1.98;;;;;;;;;;5036840;28;20459;-82
2024/02/19 03:41:29;;;;;;;2.20;2.00;;;;;;;;;;5036029;28;20561;-81
2024/02/19 03:43:55;;;;;;;1.95;1.80;;;;;;;;;;5036162;28;20434;-82
2024/02/19 03:46:21;;;;;;;1.90;1.80;;;;;;;;;;5036403;28;20403;-81
2024/02/19 03:48:47;;;;;;;2.20;2.00;;;;;;;;;;5036583;28;20800;-81
2024/02/19 03:51:13;;;;;;;2.40;1.70;;;;;;;;;;5036563;28;20383;-81
2024/02/19 03:53:39;;;;;;;1.75;1.63;;;;;;;;;;5035248;28;20903;-82
2024/02/19 03:56:06;;;;;;;1.50;1.40;;;;;;;;;;5036387;28;20402;-81
2024/02/19 03:58:31;;;;;;;2.40;1.40;;;;;;;;;;5035513;28;20414;-81
2024/02/19 04:00:57;;;;;;;1.60;1.25;;;;;;;;;;5034966;28;20394;-81
2024/02/19 04:03:23;;;;;;;1.17;1.08;;;;;;;;;;5035048;28;20403;-81
2024/02/19 04:05:49;;;;;;;1.07;1.00;;;;;;;;;;5035356;28;20596;-81
2024/02/19 04:08:16;;;;;;;1.15;1.08;;;;;;;;;;5035048;28;20383;-81
2024/02/19 04:10:42;;;;;;;1.30;1.08;;;;;;;;;;5036318;28;20375;-82
2024/02/19 04:13:08;;;;;;;1.00;0.90;;;;;;;;;;5018059;28;20398;-81
2024/02/19 04:15:34;;;;;;;1.17;1.00;;;;;;;;;;5035517;28;20387;-81
2024/02/19 04:18:00;;;;;;;1.33;1.00;;;;;;;;;;5035929;28;20395;-81
2024/02/19 04:20:26;;;;;;;1.80;1.00;;;;;;;;;;5035139;28;20719;-81
2024/02/19 04:22:52;;;;;;;1.13;1.00;;;;;;;;;;5035225;28;20868;-81
2024/02/19 04:25:18;;;;;;;1.00;0.90;;;;;;;;;;5035493;28;20383;-81
2024/02/19 04:27:44;;;;;;;1.08;0.98;;;;;;;;;;5035298;28;20390;-81
2024/02/19 04:30:10;;;;;;;1.20;1.10;;;;;;;;;;5034997;28;20386;-81
2024/02/19 04:32:36;;;;;;;1.05;1.05;;;;;;;;;;5035453;28;20953;-81
2024/02/19 04:35:02;;;;;;;3.17;1.30;;;;;;;;;;5034657;28;20387;-81
2024/02/19 04:37:30;;;;;;;2.28;1.38;;;;;;;;;;5034950;28;20498;-81
2024/02/19 04:39:56;;;;;;;1.30;1.20;;;;;;;;;;5034723;28;20429;-81
2024/02/19 04:42:22;;;;;;;1.27;1.17;;;;;;;;;;5034861;28;20876;-81
2024/02/19 04:44:48;;;;;;;1.30;1.20;;;;;;;;;;5034128;28;20916;-81
2024/02/19 04:47:14;;;;;;;1.30;1.20;;;;;;;;;;5034079;28;20419;-81
2024/02/19 04:49:40;;;;;;;1.80;1.60;;;;;;;;;;5034217;28;20375;-81
2024/02/19 04:52:06;;;;;;;1.90;1.63;;;;;;;;;;5033642;28;20383;-81
2024/02/19 04:54:32;;;;;;;1.55;1.45;;;;;;;;;;5033920;28;20749;-81
2024/02/19 04:56:58;;;;;;;1.70;1.30;;;;;;;;;;5033944;28;20467;-81
2024/02/19 04:59:24;;;;;;;1.00;1.00;;;;;;;;;;5034326;28;21062;-81
2024/02/19 05:01:50;;;;;;;1.00;1.00;;;;;;;;;;5033508;28;20398;-82
2024/02/19 05:04:18;;;;;;;2.00;1.02;;;;;;;;;;5033635;28;20407;-82
2024/02/19 05:06:44;;;;;;;1.77;1.20;;;;;;;;;;5034566;28;20391;-82
2024/02/19 05:09:10;;;;;;;1.35;1.25;;;;;;;;;;5034274;28;20397;-81
2024/02/19 05:11:36;;;;;;;1.58;1.15;;;;;;;;;;5034681;28;20395;-81
2024/02/19 05:14:02;;;;;;;1.20;1.10;;;;;;;;;;5033620;28;20434;-81
2024/02/19 05:16:28;;;;;;;1.83;1.10;;;;;;;;;;5034367;28;20384;-81
2024/02/19 05:18:56;;;;;;;1.83;1.40;;;;;;;;;;5033693;28;20458;-81
2024/02/19 05:21:22;;;;;;;1.30;1.20;;;;;;;;;;5033927;28;20903;-82
2024/02/19 05:23:48;;;;;;;1.45;1.35;;;;;;;;;;5033478;28;20419;-82
2024/02/19 05:26:14;;;;;;;1.40;1.30;;;;;;;;;;5034053;28;20410;-81
2024/02/19 05:28:40;;;;;;;1.27;1.27;;;;;;;;;;5033842;28;20849;-81
2024/02/19 05:31:06;;;;;;;1.95;1.50;;;;;;;;;;5033768;28;20414;-82
2024/02/19 05:33:32;;;;;;;1.30;1.20;;;;;;;;;;5033875;28;20906;-81
2024/02/19 05:35:58;;;;;;;1.52;1.38;;;;;;;;;;5032670;28;20387;-81
2024/02/19 05:38:24;;;;;;;1.45;1.35;;;;;;;;;;5033311;28;20714;-81
2024/02/19 05:40:50;;;;;;;1.37;1.27;;;;;;;;;;5033717;28;20398;-82
2024/02/19 05:43:16;;;;;;;1.60;1.50;;;;;;;;;;5033992;28;20465;-82
2024/02/19 05:45:42;;;;;;;1.38;1.27;;;;;;;;;;5033794;28;20406;-82
2024/02/19 05:48:08;;;;;;;1.47;1.30;;;;;;;;;;5034116;28;20957;-81
2024/02/19 05:50:34;;;;;;;1.67;1.20;;;;;;;;;;5034394;28;20405;-82
2024/02/19 05:53:01;;;;;;;1.40;1.30;;;;;;;;;;5033713;28;20383;-82
2024/02/19 05:55:27;;;;;;;1.30;1.20;;;;;;;;;;5034172;28;20398;-81
2024/02/19 05:57:53;;;;;;;1.33;1.23;;;;;;;;;;5033898;28;20375;-81
2024/02/19 06:00:19;;;;;;;1.20;1.10;;;;;;;;;;5034255;28;21233;-82
2024/02/19 06:02:45;;;;;;;1.60;1.25;;;;;;;;;;5033929;28;20409;-82
2024/02/19 06:05:12;;;;;;;1.40;1.30;;;;;;;;;;5034161;28;20403;-82
2024/02/19 06:07:38;;;;;;;1.00;1.00;;;;;;;;;;5034289;28;20486;-82
2024/02/19 06:10:04;;;;;;;1.30;1.20;;;;;;;;;;5033690;28;20379;-82
2024/02/19 06:12:30;;;;;;;1.15;1.05;;;;;;;;;;5034338;28;20381;-82
2024/02/19 06:14:56;;;;;;;1.00;1.00;;;;;;;;;;5034110;28;20426;-82
2024/02/19 06:17:22;;;;;;;1.30;1.20;;;;;;;;;;5036645;28;20427;-81
2024/02/19 06:19:48;;;;;;;1.27;1.17;;;;;;;;;;5037736;28;20379;-81
2024/02/19 06:22:14;;;;;;;1.20;1.10;;;;;;;;;;5037456;28;20778;-82
2024/02/19 06:24:40;;;;;;;1.40;1.30;;;;;;;;;;5037808;28;20458;-82
2024/02/19 06:27:06;;;;;;;1.50;1.40;;;;;;;;;;5037815;28;20872;-82
2024/02/19 06:29:33;;;;;;;1.80;1.60;;;;;;;;;;5037582;28;20457;-82
2024/02/19 06:31:59;;;;;;;1.80;1.70;;;;;;;;;;5037469;28;20383;-82
2024/02/19 06:34:26;;;;;;;1.75;1.65;;;;;;;;;;5037827;28;20378;-82
2024/02/19 06:36:52;;;;;;;2.10;2.00;;;;;;;;;;5037511;28;20383;-82
2024/02/19 06:39:20;;;;;;;2.10;2.00;;;;;;;;;;5037599;28;20474;-82
2024/02/19 06:41:46;;;;;;;2.37;2.17;;;;;;;;;;5037507;28;20383;-82
2024/02/19 06:44:12;;;;;;;2.38;2.20;;;;;;;;;;5038073;28;20406;-82
2024/02/19 06:46:38;;;;;;;2.58;2.30;;;;;;;;;;5038453;28;20387;-82
2024/02/19 06:49:04;;;;;;;2.95;2.75;;;;;;;;;;5038524;28;20398;-81
2024/02/19 06:51:30;;;;;;;2.80;2.60;;;;;;;;;;5037875;28;20458;-82
2024/02/19 06:53:56;;;;;;;2.67;2.47;;;;;;;;;;5037571;28;20415;-81
2024/02/19 06:56:22;;;;;;;2.90;2.70;;;;;;;;;;5037086;28;20386;-81
2024/02/19 06:58:48;;;;;;;2.55;2.35;;;;;;;;;;5037652;28;20394;-82
2024/02/19 07:01:15;;;;;;;2.63;2.42;;;;;;;;;;5037712;28;20387;-82
2024/02/19 07:03:42;;;;;;;2.80;2.50;;;;;;;;;;5036819;28;20403;-82
2024/02/19 07:06:08;;;;;;;2.63;2.42;;;;;;;;;;5036774;28;20424;-82
2024/02/19 07:08:34;;;;;;;2.50;2.30;;;;;;;;;;5036880;28;20869;-82
2024/02/19 07:11:00;;;;;;;2.80;2.60;;;;;;;;;;5036849;28;20387;-82
2024/02/19 07:13:26;;;;;;;2.50;2.30;;;;;;;;;;5037739;28;20425;-82
2024/02/19 07:15:52;;;;;;;2.30;2.10;;;;;;;;;;5037461;28;20390;-82
2024/02/19 07:18:18;;;;;;;2.20;2.10;;;;;;;;;;5036800;28;20536;-82
2024/02/19 07:20:44;;;;;;;2.87;2.20;;;;;;;;;;5036971;28;20380;-81
2024/02/19 07:23:10;;;;;;;1.98;1.88;;;;;;;;;;5036965;28;20415;-82
2024/02/19 07:25:36;;;;;;;2.08;1.98;;;;;;;;;;5036976;28;20769;-81
2024/02/19 07:28:02;;;;;;;1.83;1.70;;;;;;;;;;5036774;28;20380;-82
2024/02/19 07:30:28;;;;;;;2.00;1.90;;;;;;;;;;5037315;28;20376;-82
2024/02/19 07:32:54;;;;;;;1.83;1.73;;;;;;;;;;5036185;28;20476;-82
2024/02/19 07:35:20;;;;;;;1.95;1.85;;;;;;;;;;5035316;28;20394;-81
2024/02/19 07:37:46;;;;;;;1.90;1.80;;;;;;;;;;5035370;28;20384;-82
2024/02/19 07:40:12;;;;;;;2.60;2.40;;;;;;;;;;5036937;28;20723;-82
2024/02/19 07:42:38;;;;;;;2.03;1.83;;;;;;;;;;5036563;28;20390;-82
2024/02/19 07:45:06;;;;;;;2.17;2.08;;;;;;;;;;5037298;28;20391;-82
2024/02/19 07:47:32;;;;;;;2.17;2.07;;;;;;;;;;5036707;28;20371;-81
2024/02/19 07:49:58;;;;;;;2.67;2.47;;;;;;;;;;5036786;28;20414;-81
2024/02/19 07:52:24;;;;;;;2.70;2.50;;;;;;;;;;5036636;28;20454;-81
2024/02/19 07:54:50;;;;;;;3.20;3.00;;;;;;;;;;5036331;28;20415;-81
2024/02/19 07:57:16;;;;;;;3.25;3.03;;;;;;;;;;5036297;28;20433;-81
2024/02/19 07:59:42;;;;;;;3.10;2.90;;;;;;;;;;5035722;28;20383;-81
2024/02/19 08:02:08;;;;;;;2.90;2.70;;;;;;;;;;5035617;28;20389;-81
2024/02/19 08:04:34;;;;;;;3.00;2.70;;;;;;;;;;5036120;28;20423;-81
2024/02/19 08:07:01;;;;;;;3.15;2.85;;;;;;;;;;5036197;28;20391;-81
2024/02/19 08:09:27;;;;;;;2.63;2.42;;;;;;;;;;5035832;28;20378;-81
2024/02/19 08:11:53;;;;;;;2.65;2.45;;;;;;;;;;5036249;28;20465;-82
2024/02/19 08:14:19;;;;;;;3.17;2.50;;;;;;;;;;5035471;28;20441;-82
2024/02/19 08:16:49;;;;;;;2.08;1.95;;;;;;;;;;5035579;28;20753;-82
2024/02/19 08:19:15;;;;;;;2.15;1.90;;;;;;;;;;5034858;28;20383;-80
2024/02/19 08:21:42;;;;;;;1.73;1.60;;;;;;;;;;5035178;28;20395;-80
2024/02/19 08:24:08;;;;;;;1.50;1.40;;;;;;;;;;5035416;28;20486;-81
2024/02/19 08:26:34;;;;;;;1.80;1.70;;;;;;;;;;5035383;28;20833;-81
2024/02/19 08:29:00;;;;;;;1.60;1.50;;;;;;;;;;5035361;28;20395;-81
2024/02/19 08:31:27;;;;;;;2.20;1.60;;;;;;;;;;5036037;28;20453;-82
2024/02/19 08:33:56;;;;;;;1.80;1.50;;;;;;;;;;5036381;28;20378;-82
2024/02/19 08:36:22;;;;;;;1.50;1.40;;;;;;;;;;5035739;28;20387;-81
2024/02/19 08:38:50;;;;;;;1.42;1.33;;;;;;;;;;5034512;28;20418;-80
2024/02/19 08:41:16;;;;;;;1.37;1.20;;;;;;;;;;5035113;28;20881;-81
2024/02/19 08:43:42;;;;;;;4.00;1.20;;;;;;;;;;5035119;28;20912;-81
2024/02/19 08:46:08;;;;;;;1.77;1.20;;;;;;;;;;5035276;28;20379;-82
2024/02/19 08:48:34;;;;;;;1.33;1.23;;;;;;;;;;5035160;28;20470;-81
2024/02/19 08:51:00;;;;;;;1.60;1.30;;;;;;;;;;5035201;28;20383;-81
2024/02/19 08:53:28;;;;;;;1.30;1.20;;;;;;;;;;5035100;28;20417;-81
2024/02/19 08:55:54;;;;;;;1.98;1.40;;;;;;;;;;5034533;28;20387;-81
2024/02/19 08:58:20;;;;;;;2.20;1.70;;;;;;;;;;5034476;28;20386;-80
2024/02/19 09:00:46;;;;;;;1.40;1.30;;;;;;;;;;5034683;28;20438;-81
2024/02/19 09:03:12;;;;;;;1.38;1.13;;;;;;;;;;5034741;28;20908;-83
2024/02/19 09:05:38;;;;;;;2.30;1.30;;;;;;;;;;5034458;28;20415;-80
2024/02/19 09:08:05;;;;;;;1.50;1.30;;;;;;;;;;5034745;28;20387;-81
2024/02/19 09:10:31;;;;;;;1.60;1.40;;;;;;;;;;5035250;28;20459;-81
2024/02/19 09:12:57;;;;;;;2.75;1.73;;;;;;;;;;5034784;28;20383;-80
2024/02/19 09:15:23;;;;;;;1.73;1.63;;;;;;;;;;5034636;28;20433;-81
2024/02/19 09:17:49;;;;;;;4.28;1.80;;;;;;;;;;5034697;28;20383;-81
2024/02/19 09:20:16;;;;;;;2.60;1.60;;;;;;;;;;5034890;28;20410;-80
2024/02/19 09:22:42;;;;;;;2.00;1.63;;;;;;;;;;5034619;28;20857;-81
2024/02/19 09:25:09;;;;;;;2.42;1.48;;;;;;;;;;5034416;28;20379;-80
2024/02/19 09:27:35;;;;;;;1.50;1.40;;;;;;;;;;5032561;28;20451;-80
2024/02/19 09:30:03;;;;;;;2.22;1.25;;;;;;;;;;5034085;28;20387;-80
2024/02/19 09:32:29;;;;;;;1.50;1.30;;;;;;;;;;5034521;28;20434;-80
2024/02/19 09:34:55;;;;;;;1.67;1.42;;;;;;;;;;5033769;28;20371;-80
2024/02/19 09:37:25;;;;;;;1.60;1.30;;;;;;;;;;5033911;28;20372;-80
2024/02/19 09:39:58;;;;;;;2.80;1.52;;;;;;;;;;5033904;28;20856;-80
2024/02/19 09:42:24;;;;;;;1.70;1.20;;;;;;;;;;5033941;28;20425;-80
2024/02/19 09:44:50;;;;;;;1.90;1.40;;;;;;;;;;5034085;28;20415;-80
2024/02/19 09:47:16;;;;;;;2.05;1.20;;;;;;;;;;5033507;28;20926;-80
2024/02/19 09:49:43;;;;;;;1.45;1.10;;;;;;;;;;5033106;28;20398;-81
2024/02/19 09:52:11;;;;;;;2.10;1.30;;;;;;;;;;5035717;28;20492;-80
2024/02/19 09:54:37;;;;;;;1.73;1.10;;;;;;;;;;5037336;28;20375;-80
2024/02/19 09:57:09;;;;;;;1.92;1.33;;;;;;;;;;5036986;28;20414;-80
2024/02/19 09:59:36;;;;;;;2.80;1.20;;;;;;;;;;5036761;28;20738;-80
2024/02/19 10:02:02;;;;;;;3.35;1.95;;;;;;;;;;5036717;28;20502;-80
2024/02/19 10:04:28;;;;;;;4.13;1.73;;;;;;;;;;5036174;28;20955;-82
2024/02/19 10:06:54;;;;;;;2.55;1.50;;;;;;;;;;5036730;28;20386;-82
2024/02/19 10:09:21;;;;;;;2.10;1.50;;;;;;;;;;5036409;28;20903;-80
2024/02/19 10:11:49;;;;;;;3.70;1.80;;;;;;;;;;5036430;28;20378;-82
2024/02/19 10:14:15;;;;;;;3.35;1.75;;;;;;;;;;5036384;28;20387;-82
2024/02/19 10:16:48;;;;;;;2.45;1.75;;;;;;;;;;5036056;28;20398;-82
2024/02/19 10:19:15;;;;;;;3.17;1.88;;;;;;;;;;5035801;28;20478;-84
2024/02/19 10:21:42;;;;;;;2.33;1.77;;;;;;;;;;5036109;28;20395;-83
2024/02/19 10:24:08;;;;;;;3.17;1.98;;;;;;;;;;5035953;28;20399;-82
2024/02/19 10:26:34;;;;;;;2.00;1.40;;;;;;;;;;5036489;28;20425;-83
2024/02/19 10:29:00;;;;;;;2.80;1.42;;;;;;;;;;5035686;28;20438;-83
2024/02/19 10:31:28;;;;;;;2.73;1.50;;;;;;;;;;5035901;28;20391;-83
2024/02/19 10:33:53;;;;;;;1.95;1.40;;;;;;;;;;5035317;28;20379;-82
2024/02/19 10:36:22;;;;;;;2.70;1.52;;;;;;;;;;5035362;28;20786;-81
2024/02/19 10:38:48;;;;;;;2.40;1.58;;;;;;;;;;5035450;28;20387;-83
2024/02/19 10:41:16;;;;;;;1.63;1.42;;;;;;;;;;5035333;28;21061;-82
2024/02/19 10:43:42;;;;;;;1.95;1.52;;;;;;;;;;5034337;28;20403;-83
2024/02/19 10:46:09;;;;;;;1.50;1.40;;;;;;;;;;5035818;28;20801;-83
2024/02/19 10:48:35;;;;;;;2.80;1.40;;;;;;;;;;5035898;28;20394;-84
2024/02/19 10:51:05;;;;;;;4.43;1.45;;;;;;;;;;5035063;28;20419;-84
2024/02/19 10:53:31;;;;;;;1.83;1.30;;;;;;;;;;5035822;28;20501;-84
2024/02/19 10:56:10;;;;;;;2.35;1.13;;;;;;;;;;5035754;28;20402;-83
2024/02/19 10:58:36;;;;;;;1.60;1.10;;;;;;;;;;5035629;28;20466;-84
2024/02/19 11:01:02;;;;;;;1.95;1.10;;;;;;;;;;5035940;28;20478;-84
2024/02/19 11:03:30;;;;;;;4.60;1.38;;;;;;;;;;5036674;28;20498;-84
2024/02/19 11:06:01;;;;;;;3.15;1.05;;;;;;;;;;5036780;28;20407;-84
2024/02/19 11:08:34;;;;;;;4.38;1.35;;;;;;;;;;5037128;28;20394;-84
2024/02/19 11:11:03;;;;;;;4.40;1.60;;;;;;;;;;5036806;28;20907;-82
2024/02/19 11:13:29;;;;;;;2.40;1.30;;;;;;;;;;5037105;28;20806;-84
2024/02/19 11:15:55;;;;;;;1.95;1.27;;;;;;;;;;5036827;28;20387;-84
2024/02/19 11:18:22;;;;;;;2.00;1.30;;;;;;;;;;5036954;28;20387;-84
2024/02/19 11:20:49;;;;;;;2.70;1.25;;;;;;;;;;5037390;28;20379;-84
2024/02/19 11:23:20;;;;;;;3.83;1.85;;;;;;;;;;5037322;28;20419;-83
2024/02/19 11:25:46;;;;;;;3.20;1.50;;;;;;;;;;5036443;28;20477;-84
2024/02/19 11:28:15;;;;;;;1.92;1.15;;;;;;;;;;5037500;28;20371;-84
2024/02/19 11:30:41;;;;;;;2.92;1.10;;;;;;;;;;5036933;28;20379;-83
2024/02/19 11:33:08;;;;;;;2.63;1.47;;;;;;;;;;5037385;28;20387;-83
2024/02/19 11:35:35;;;;;;;2.05;1.20;;;;;;;;;;5035908;28;20753;-82
2024/02/19 11:38:01;;;;;;;2.33;1.48;;;;;;;;;;5035924;28;20463;-83
2024/02/19 11:40:33;;;;;;;2.10;1.27;;;;;;;;;;5035505;28;20390;-81
2024/02/19 11:43:00;;;;;;;2.40;1.20;;;;;;;;;;5036355;28;20761;-81
2024/02/19 11:45:27;;;;;;;2.10;1.20;;;;;;;;;;5035839;28;20721;-81
2024/02/19 11:47:53;;;;;;;2.05;1.15;;;;;;;;;;5035490;28;20371;-81
2024/02/19 11:50:23;;;;;;;3.00;1.17;;;;;;;;;;5018336;28;20916;-81
2024/02/19 11:52:51;;;;;;;2.78;1.30;;;;;;;;;;5035945;28;20966;-81
2024/02/19 11:55:20;;;;;;;1.57;1.07;;;;;;;;;;5035935;28;20383;-82
2024/02/19 11:57:48;;;;;;;1.58;1.15;;;;;;;;;;5035566;28;20776;-82
2024/02/19 12:00:15;;;;;;;3.00;1.33;;;;;;;;;;5034815;28;20383;-82
2024/02/19 12:02:46;;;;;;;3.65;1.50;;;;;;;;;;5034509;28;20371;-81
2024/02/19 12:05:12;;;;;;;2.05;1.27;;;;;;;;;;5034831;28;20438;-83
2024/02/19 12:07:38;;;;;;;1.87;1.27;;;;;;;;;;5034429;28;20383;-83
2024/02/19 12:10:07;;;;;;;1.25;1.00;;;;;;;;;;5035045;28;20448;-83
2024/02/19 12:12:33;;;;;;;1.77;1.15;;;;;;;;;;5034713;28;20457;-82
2024/02/19 12:15:00;;;;;;;2.53;1.45;;;;;;;;;;5034002;28;20407;-82
2024/02/19 12:17:26;;;;;;;1.90;1.13;;;;;;;;;;5034736;28;20367;-82
2024/02/19 12:19:52;;;;;;;2.50;1.30;;;;;;;;;;5034426;28;20407;-82
2024/02/19 12:22:17;;;;;;;1.85;1.08;;;;;;;;;;5034700;28;20778;-83
2024/02/19 12:24:43;;;;;;;2.03;1.20;;;;;;;;;;5034873;28;20458;-82
2024/02/19 12:27:09;;;;;;;2.00;1.00;;;;;;;;;;5034489;28;20387;-82
2024/02/19 12:29:35;;;;;;;1.25;1.00;;;;;;;;;;5034093;28;20403;-82
2024/02/19 12:32:01;;;;;;;1.50;0.90;;;;;;;;;;5033895;28;20387;-83
2024/02/19 12:34:28;;;;;;;1.33;0.90;;;;;;;;;;5033572;28;20387;-83
2024/02/19 12:36:54;;;;;;;2.38;0.93;;;;;;;;;;5033911;28;20387;-80
2024/02/19 12:39:20;;;;;;;3.53;1.27;;;;;;;;;;5033809;28;20395;-83
2024/02/19 12:41:48;;;;;;;1.80;0.70;;;;;;;;;;5034005;28;20379;-82
2024/02/19 12:44:15;;;;;;;2.13;0.80;;;;;;;;;;5033626;28;20793;-82
2024/02/19 12:46:41;;;;;;;2.50;0.70;;;;;;;;;;5033478;28;20980;-82
2024/02/19 12:49:08;;;;;;;1.70;0.80;;;;;;;;;;5033526;28;20383;-82
2024/02/19 12:51:35;;;;;;;1.00;0.70;;;;;;;;;;5033370;28;20379;-82
2024/02/19 12:54:02;;;;;;;1.77;0.73;;;;;;;;;;5033492;28;20390;-82
2024/02/19 12:56:28;;;;;;;1.13;0.70;;;;;;;;;;5033258;28;20737;-82
2024/02/19 12:58:54;;;;;;;1.63;0.80;;;;;;;;;;5032998;28;20391;-83
2024/02/19 13:01:20;;;;;;;0.98;0.77;;;;;;;;;;5033431;28;20379;-81
2024/02/19 13:03:48;;;;;;;1.67;0.90;;;;;;;;;;5033432;28;20406;-81
2024/02/19 13:06:14;;;;;;;1.50;0.82;;;;;;;;;;5033221;28;20382;-81
2024/02/19 13:08:44;;;;;;;1.25;0.80;;;;;;;;;;5032918;28;20384;-81
2024/02/19 13:11:10;;;;;;;1.70;1.00;;;;;;;;;;5032818;28;20463;-82
2024/02/19 13:13:36;;;;;;;1.38;0.90;;;;;;;;;;5033030;28;20387;-80
2024/02/19 13:16:03;;;;;;;1.42;0.88;;;;;;;;;;5033222;28;20391;-81
2024/02/19 13:18:30;;;;;;;1.15;0.95;;;;;;;;;;5032881;28;20475;-83
2024/02/19 13:20:56;;;;;;;1.50;0.80;;;;;;;;;;5032735;28;20703;-81
2024/02/19 13:23:22;;;;;;;2.90;1.35;;;;;;;;;;5033303;28;20509;-82
2024/02/19 13:25:48;;;;;;;2.53;1.35;;;;;;;;;;5032633;28;20383;-82
2024/02/19 13:28:14;;;;;;;1.23;1.00;;;;;;;;;;5033332;28;20445;-81
2024/02/19 13:30:40;;;;;;;0.93;0.55;;;;;;;;;;5033039;28;20441;-81
2024/02/19 13:33:07;;;;;;;1.67;0.70;;;;;;;;;;5033577;28;20375;-82
2024/02/19 13:35:34;;;;;;;1.50;0.90;;;;;;;;;;5034095;28;20383;-81
2024/02/19 13:38:03;;;;;;;1.20;0.63;;;;;;;;;;5033729;28;20383;-81
2024/02/19 13:40:29;;;;;;;0.95;0.60;;;;;;;;;;5032556;28;20383;-83
2024/02/19 13:42:55;;;;;;;1.73;0.90;;;;;;;;;;5032858;28;20493;-83
2024/02/19 13:45:25;;;;;;;1.08;0.80;;;;;;;;;;5032773;28;20753;-83
2024/02/19 13:47:58;;;;;;;2.10;0.90;;;;;;;;;;5032197;28;20403;-81
2024/02/19 13:50:24;;;;;;;1.40;0.60;;;;;;;;;;5032679;28;20458;-83
2024/02/19 13:52:51;;;;;;;0.95;0.60;;;;;;;;;;5032896;28;20861;-82
2024/02/19 13:55:17;;;;;;;1.10;0.50;;;;;;;;;;5033105;28;20407;-81
2024/02/19 13:57:44;;;;;;;1.30;0.80;;;;;;;;;;5032546;28;20379;-81
2024/02/19 14:00:15;;;;;;;2.55;0.77;;;;;;;;;;5032957;28;20421;-82
2024/02/19 14:02:41;;;;;;;2.20;0.73;;;;;;;;;;5032732;28;20451;-83
2024/02/19 14:05:07;;;;;;;1.00;0.70;;;;;;;;;;5032534;28;20977;-83
2024/02/19 14:07:33;;;;;;;1.58;0.80;;;;;;;;;;5032491;28;20911;-83
2024/02/19 14:10:00;;;;;;;0.55;0.52;;;;;;;;;;5032241;28;20414;-83
2024/02/19 14:12:26;;;;;;;3.00;0.90;;;;;;;;;;5032472;28;20406;-83
2024/02/19 14:14:52;;;;;;;1.48;0.73;;;;;;;;;;5032524;28;20474;-81
2024/02/19 14:17:18;;;;;;;2.20;0.80;;;;;;;;;;5031974;28;20860;-83
2024/02/19 14:19:44;;;;;;;2.03;0.80;;;;;;;;;;5032579;28;20383;-81
2024/02/19 14:22:10;;;;;;;2.67;1.35;;;;;;;;;;5032823;28;20714;-82
2024/02/19 14:24:36;;;;;;;2.17;1.48;;;;;;;;;;5032536;28;20414;-81
2024/02/19 14:27:04;;;;;;;1.77;1.25;;;;;;;;;;5032022;28;20432;-83
2024/02/19 14:29:31;;;;;;;2.25;0.80;;;;;;;;;;5031938;28;20383;-82
2024/02/19 14:31:57;;;;;;;1.40;0.80;;;;;;;;;;5032454;28;20769;-81
2024/02/19 14:34:24;;;;;;;2.03;1.00;;;;;;;;;;5031922;28;20384;-81
2024/02/19 14:36:50;;;;;;;2.57;1.60;;;;;;;;;;5032402;28;20383;-83
2024/02/19 14:39:20;;;;;;;2.53;1.58;;;;;;;;;;5035725;28;20391;-82